Antler, North Dakota
Current Conditions -  °F | °C
As of 2:18 AM on Thursday 27 Nov 2014 (Local Time) from KMIB Reporting Station
Broken Clouds Broken Clouds  
Wind Chill: -30°   Ceiling: 1400
Heat Index: -30°   Visibility: 10mi
Dew Point: -33°   Wind: 3mph
Humidity: 76%   Direction: 160°SSE
Pressure: 30.4"   Gusts: NA
Location:  48.97°N, 101.28°W
Report Text: KMIB 270818Z AUTO 16003KT 10SM BKN014 M30/M33 A3040 RMK AO2 VIS 1/2 RWY29
Loading
Personal Weather Stations






























Interactive Weather Map New forecast layout! Learn more

10-Day Weather Forecast

Advertisements
Track Severe Weather on mobile